createdAt,value
2017-12-16T00:00:25.308Z,22.83
2017-12-16T00:02:54.090Z,22.63
2017-12-16T00:05:21.728Z,23.90
2017-12-16T00:07:49.597Z,23.60
2017-12-16T00:10:17.183Z,24.60
2017-12-16T00:12:44.783Z,22.70
2017-12-16T00:15:12.693Z,23.80
2017-12-16T00:17:40.350Z,21.90
2017-12-16T00:20:07.933Z,22.63
2017-12-16T00:22:35.540Z,22.10
2017-12-16T00:25:03.199Z,22.67
2017-12-16T00:27:30.784Z,23.80
2017-12-16T00:29:58.412Z,23.80
2017-12-16T00:32:25.995Z,22.93
2017-12-16T00:34:53.573Z,24.00
2017-12-16T00:37:21.176Z,25.70
2017-12-16T00:39:48.770Z,23.93
2017-12-16T00:42:16.376Z,25.10
2017-12-16T00:44:43.952Z,23.40
2017-12-16T00:47:11.535Z,23.70
2017-12-16T00:49:39.180Z,22.80
2017-12-16T00:52:06.786Z,25.17
2017-12-16T00:54:34.424Z,22.47
2017-12-16T00:57:02.019Z,23.87
2017-12-16T00:59:29.600Z,24.50
2017-12-16T01:01:57.202Z,23.07
2017-12-16T01:04:24.797Z,24.80
2017-12-16T01:06:52.422Z,25.20
2017-12-16T01:09:19.995Z,26.33
2017-12-16T01:11:47.585Z,25.43
2017-12-16T01:14:15.184Z,27.67
2017-12-16T01:16:42.766Z,25.47
2017-12-16T01:19:10.464Z,25.67
2017-12-16T01:21:38.065Z,25.17
2017-12-16T01:24:05.648Z,23.90
2017-12-16T01:26:33.240Z,23.83
2017-12-16T01:29:01.144Z,25.10
2017-12-16T01:31:29.011Z,26.27
2017-12-16T01:34:08.385Z,26.27
2017-12-16T01:36:47.921Z,23.93
2017-12-16T01:39:15.764Z,24.53
2017-12-16T01:41:43.348Z,23.40
2017-12-16T01:44:10.957Z,24.83
2017-12-16T01:46:38.546Z,24.30
2017-12-16T01:49:06.161Z,25.00
2017-12-16T01:51:34.099Z,24.73
2017-12-16T01:54:01.671Z,23.10
2017-12-16T01:56:29.329Z,24.87
2017-12-16T01:58:56.982Z,26.20
2017-12-16T02:01:24.616Z,23.20
2017-12-16T02:03:52.493Z,25.47
2017-12-16T02:06:20.071Z,24.20
2017-12-16T02:08:47.677Z,27.37
2017-12-16T02:11:15.585Z,24.43
2017-12-16T02:13:43.205Z,22.50
2017-12-16T02:16:10.801Z,23.90
2017-12-16T02:18:38.631Z,25.83
2017-12-16T02:21:06.236Z,24.37
2017-12-16T02:23:33.821Z,24.27
2017-12-16T02:26:01.482Z,24.50
2017-12-16T02:28:29.074Z,24.20
2017-12-16T02:30:56.655Z,25.00
2017-12-16T02:33:24.305Z,24.47
2017-12-16T02:35:51.901Z,24.37
2017-12-16T02:38:19.580Z,24.40
2017-12-16T02:40:47.160Z,24.23
2017-12-16T02:43:14.804Z,23.90
2017-12-16T02:45:42.673Z,24.53
2017-12-16T02:48:10.271Z,24.33
2017-12-16T02:50:37.892Z,24.33
2017-12-16T02:53:05.465Z,22.83
2017-12-16T02:55:33.045Z,23.73
2017-12-16T02:58:00.654Z,25.17
2017-12-16T03:00:28.233Z,26.17
2017-12-16T03:02:56.100Z,25.47
2017-12-16T03:05:23.743Z,23.77
2017-12-16T03:07:51.332Z,25.03
2017-12-16T03:10:18.919Z,24.07
2017-12-16T03:12:46.543Z,23.20
2017-12-16T03:15:14.416Z,22.90
2017-12-16T03:17:42.009Z,24.30
2017-12-16T03:20:09.950Z,23.33
2017-12-16T03:22:37.811Z,24.50
2017-12-16T03:25:05.427Z,22.90
2017-12-16T03:27:33.025Z,25.27
2017-12-16T03:30:00.620Z,24.90
2017-12-16T03:32:28.225Z,24.43
2017-12-16T03:34:55.843Z,23.40
2017-12-16T03:37:23.548Z,24.43
2017-12-16T03:39:51.136Z,24.00
2017-12-16T03:42:18.709Z,25.30
2017-12-16T03:44:46.329Z,24.70
2017-12-16T03:47:14.354Z,24.00
2017-12-16T03:49:42.527Z,25.30
2017-12-16T03:52:10.115Z,24.73
2017-12-16T03:54:37.697Z,23.53
2017-12-16T03:57:05.324Z,24.87
2017-12-16T03:59:32.900Z,25.80
2017-12-16T04:02:00.860Z,24.23
2017-12-16T04:04:28.456Z,23.83
2017-12-16T04:06:56.364Z,23.87
2017-12-16T04:09:23.977Z,24.37
2017-12-16T04:11:51.568Z,25.17
2017-12-16T04:14:19.458Z,24.63
2017-12-16T04:16:47.096Z,25.10
2017-12-16T04:19:14.989Z,24.77
2017-12-16T04:21:42.618Z,23.47
2017-12-16T04:24:10.185Z,24.37
2017-12-16T04:26:37.800Z,25.50
2017-12-16T04:29:05.640Z,24.93
2017-12-16T04:31:33.230Z,23.87
2017-12-16T04:34:00.868Z,24.13
2017-12-16T04:36:28.548Z,25.30
2017-12-16T04:38:56.497Z,24.97
2017-12-16T04:41:24.118Z,24.93
2017-12-16T04:43:51.745Z,26.00
2017-12-16T04:46:19.343Z,23.50
2017-12-16T04:48:46.917Z,26.20
2017-12-16T04:51:14.529Z,23.90
2017-12-16T04:53:42.176Z,22.90
2017-12-16T04:56:09.744Z,24.67
2017-12-16T04:58:37.355Z,23.60
2017-12-16T05:01:04.961Z,24.33
2017-12-16T05:03:32.586Z,23.73
2017-12-16T05:06:00.177Z,24.43
2017-12-16T05:08:27.752Z,25.07
2017-12-16T05:10:55.362Z,24.50
2017-12-16T05:13:22.939Z,26.27
2017-12-16T05:15:50.833Z,24.67
2017-12-16T05:18:18.702Z,25.33
2017-12-16T05:20:46.285Z,24.77
2017-12-16T05:23:14.226Z,24.63
2017-12-16T05:25:41.811Z,23.73
2017-12-16T05:28:09.425Z,25.50
2017-12-16T05:30:37.013Z,25.27
2017-12-16T05:33:04.609Z,25.83
2017-12-16T05:35:32.559Z,24.53
2017-12-16T05:38:00.145Z,24.50
2017-12-16T05:40:27.774Z,25.93
2017-12-16T05:42:55.366Z,26.10
2017-12-16T05:45:22.945Z,25.50
2017-12-16T05:47:50.569Z,25.27
2017-12-16T05:50:18.155Z,25.20
2017-12-16T05:52:46.085Z,26.07
2017-12-16T05:55:14.513Z,25.03
2017-12-16T05:57:42.159Z,26.23
2017-12-16T06:00:09.826Z,24.90
2017-12-16T06:02:37.400Z,27.23
2017-12-16T06:05:05.062Z,24.90
2017-12-16T06:07:32.991Z,25.57
2017-12-16T06:10:00.575Z,27.13
2017-12-16T06:12:28.235Z,25.87
2017-12-16T06:14:55.812Z,26.73
2017-12-16T06:17:23.437Z,26.33
2017-12-16T06:19:51.353Z,24.10
2017-12-16T06:22:18.926Z,25.60
2017-12-16T06:24:46.831Z,25.23
2017-12-16T06:27:14.415Z,24.27
2017-12-16T06:29:42.054Z,23.80
2017-12-16T06:32:09.647Z,25.20
2017-12-16T06:34:37.235Z,25.33
2017-12-16T06:37:04.860Z,25.00
2017-12-16T06:39:32.484Z,26.07
2017-12-16T06:42:00.134Z,25.17
2017-12-16T06:44:28.046Z,25.97
2017-12-16T06:46:55.611Z,25.20
2017-12-16T06:49:23.577Z,25.93
2017-12-16T06:51:51.159Z,24.67
2017-12-16T06:54:18.780Z,23.37
2017-12-16T06:56:46.780Z,23.73
2017-12-16T06:59:14.373Z,23.47
2017-12-16T07:01:41.991Z,24.20
2017-12-16T07:04:09.572Z,24.50
2017-12-16T07:06:37.632Z,24.50
2017-12-16T07:09:05.593Z,24.40
2017-12-16T07:11:33.184Z,23.97
2017-12-16T07:14:00.810Z,24.37
2017-12-16T07:16:28.675Z,23.83
2017-12-16T07:18:56.340Z,24.80
2017-12-16T07:21:23.933Z,26.97
2017-12-16T07:23:51.535Z,23.97
2017-12-16T07:26:19.446Z,24.50
2017-12-16T07:28:47.038Z,25.40
2017-12-16T07:31:14.766Z,25.60
2017-12-16T07:33:42.357Z,25.00
2017-12-16T07:36:09.952Z,25.33
2017-12-16T07:38:37.611Z,24.07
2017-12-16T07:41:05.197Z,24.60
2017-12-16T07:43:33.081Z,26.00
2017-12-16T07:46:00.659Z,24.50
2017-12-16T07:48:28.254Z,27.30
2017-12-16T07:50:55.859Z,25.33
2017-12-16T07:53:23.443Z,25.43
2017-12-16T07:55:51.389Z,25.10
2017-12-16T07:58:19.035Z,25.37
2017-12-16T08:00:47.480Z,25.50
2017-12-16T08:03:15.114Z,25.70
2017-12-16T08:05:42.703Z,26.07
2017-12-16T08:08:10.315Z,26.60
2017-12-16T08:10:37.946Z,25.67
2017-12-16T08:13:06.288Z,25.80
2017-12-16T08:15:33.900Z,25.60
2017-12-16T08:18:01.471Z,27.70
2017-12-16T08:20:29.089Z,27.17
2017-12-16T08:22:56.699Z,26.47
2017-12-16T08:25:24.285Z,27.40
2017-12-16T08:27:51.904Z,27.40
2017-12-16T08:30:19.810Z,27.17
2017-12-16T08:32:47.433Z,28.50
2017-12-16T08:35:15.009Z,27.07
2017-12-16T08:37:42.596Z,26.80
2017-12-16T08:40:10.212Z,26.57
2017-12-16T08:42:37.815Z,28.13
2017-12-16T08:45:05.451Z,26.20
2017-12-16T08:47:33.059Z,26.90
2017-12-16T08:50:00.696Z,26.70
2017-12-16T08:52:28.366Z,25.67
2017-12-16T08:54:56.229Z,27.60
2017-12-16T08:57:23.862Z,26.40
2017-12-16T08:59:51.542Z,24.33
2017-12-16T09:02:19.116Z,25.43
2017-12-16T09:04:46.752Z,26.27
2017-12-16T09:07:14.648Z,24.53
2017-12-16T09:09:42.272Z,24.33
2017-12-16T09:12:09.872Z,24.57
2017-12-16T09:14:37.479Z,23.50
2017-12-16T09:17:05.087Z,24.47
2017-12-16T09:19:32.687Z,22.17
2017-12-16T09:22:00.322Z,22.40
2017-12-16T09:24:27.935Z,23.70
2017-12-16T09:26:55.551Z,24.80
2017-12-16T09:29:23.162Z,24.23
2017-12-16T09:31:50.760Z,24.50
2017-12-16T09:34:18.392Z,24.63
2017-12-16T09:36:45.992Z,26.70
2017-12-16T09:39:13.603Z,23.63
2017-12-16T09:41:41.368Z,24.33
2017-12-16T09:44:09.285Z,23.27
2017-12-16T09:46:37.370Z,23.20
2017-12-16T09:49:05.343Z,23.97
2017-12-16T09:51:32.963Z,24.83
2017-12-16T09:54:01.097Z,24.40
2017-12-16T09:56:28.684Z,24.23
2017-12-16T09:58:56.336Z,24.50
2017-12-16T10:01:23.915Z,24.33
2017-12-16T10:03:51.512Z,24.07
2017-12-16T10:06:19.379Z,24.80
2017-12-16T10:08:46.980Z,24.73
2017-12-16T10:11:14.568Z,23.83
2017-12-16T10:13:42.201Z,24.80
2017-12-16T10:16:09.785Z,26.40
2017-12-16T10:18:37.426Z,26.00
2017-12-16T10:21:05.056Z,25.80
2017-12-16T10:23:32.662Z,26.27
2017-12-16T10:26:00.288Z,26.70
2017-12-16T10:28:27.924Z,24.60
2017-12-16T10:30:55.504Z,27.50
2017-12-16T10:33:23.371Z,26.27
2017-12-16T10:35:50.988Z,26.93
2017-12-16T10:38:18.609Z,26.37
2017-12-16T10:40:46.295Z,28.80
2017-12-16T10:43:13.964Z,30.03
2017-12-16T10:45:41.972Z,28.43
2017-12-16T10:48:09.629Z,29.10
2017-12-16T10:50:37.276Z,26.07
2017-12-16T10:53:04.928Z,28.03
2017-12-16T10:55:32.858Z,27.50
2017-12-16T10:58:00.456Z,29.17
2017-12-16T11:00:33.614Z,28.10
2017-12-16T11:03:01.481Z,27.80
2017-12-16T11:05:29.116Z,27.77
2017-12-16T11:07:56.707Z,28.70
2017-12-16T11:10:24.284Z,27.43
2017-12-16T11:12:51.944Z,30.20
2017-12-16T11:15:19.586Z,28.63
2017-12-16T11:17:47.218Z,27.50
2017-12-16T11:20:14.817Z,27.50
2017-12-16T11:22:42.407Z,27.43
2017-12-16T11:25:10.035Z,25.80
2017-12-16T11:27:37.621Z,27.20
2017-12-16T11:30:05.274Z,27.40
2017-12-16T11:32:32.871Z,24.43
2017-12-16T11:35:00.469Z,24.53
2017-12-16T11:37:28.088Z,24.30
2017-12-16T11:39:55.694Z,26.13
2017-12-16T11:42:23.337Z,24.27
2017-12-16T11:44:50.944Z,24.50
2017-12-16T11:47:18.544Z,25.40
2017-12-16T11:49:46.199Z,22.93
2017-12-16T11:52:13.785Z,23.90
2017-12-16T11:54:41.419Z,22.67
2017-12-16T11:57:09.028Z,22.10
2017-12-16T11:59:36.616Z,22.23
2017-12-16T12:02:04.227Z,22.13
2017-12-16T12:04:31.846Z,22.13
2017-12-16T12:06:59.480Z,23.43
2017-12-16T12:09:27.090Z,22.93
2017-12-16T12:11:54.693Z,24.73
2017-12-16T12:14:22.339Z,22.00
2017-12-16T12:16:49.932Z,23.40
2017-12-16T12:19:17.556Z,23.27
2017-12-16T12:21:45.184Z,23.87
2017-12-16T12:24:13.127Z,24.17
2017-12-16T12:26:40.766Z,22.80
2017-12-16T12:29:08.440Z,22.87
2017-12-16T12:31:36.064Z,24.33
2017-12-16T12:34:03.672Z,22.63
2017-12-16T12:36:31.273Z,22.70
2017-12-16T12:38:58.955Z,22.50
2017-12-16T12:41:26.536Z,23.70
2017-12-16T12:43:54.169Z,22.90
2017-12-16T12:46:21.777Z,23.70
2017-12-16T12:48:49.381Z,22.80
2017-12-16T12:51:17.016Z,23.57
2017-12-16T12:53:44.644Z,23.37
2017-12-16T12:56:12.563Z,24.70
2017-12-16T12:58:40.185Z,24.60
2017-12-16T13:01:07.814Z,22.10
2017-12-16T13:03:35.432Z,23.30
2017-12-16T13:06:03.036Z,24.27
2017-12-16T13:08:31.058Z,23.87
2017-12-16T13:10:58.683Z,25.93
2017-12-16T13:13:26.595Z,26.00
2017-12-16T13:15:54.232Z,24.43
2017-12-16T13:18:21.815Z,24.53
2017-12-16T13:20:49.471Z,23.83
2017-12-16T13:23:17.128Z,22.90
2017-12-16T13:25:44.909Z,24.63
2017-12-16T13:28:12.783Z,25.87
2017-12-16T13:30:40.377Z,25.40
2017-12-16T13:33:08.017Z,23.70
2017-12-16T13:35:35.779Z,24.47
2017-12-16T13:38:03.380Z,26.03
2017-12-16T13:40:31.000Z,23.43
2017-12-16T13:42:58.599Z,24.10
2017-12-16T13:45:26.277Z,23.40
2017-12-16T13:47:54.183Z,24.30
2017-12-16T13:50:21.794Z,24.40
2017-12-16T13:52:49.439Z,24.80
2017-12-16T13:55:17.372Z,26.20
2017-12-16T13:57:45.017Z,22.70
2017-12-16T14:00:12.668Z,24.40
2017-12-16T14:02:40.367Z,24.20
2017-12-16T14:05:08.024Z,26.03
2017-12-16T14:07:35.640Z,24.87
2017-12-16T14:10:03.325Z,24.30
2017-12-16T14:12:30.922Z,25.33
2017-12-16T14:14:58.514Z,25.27
2017-12-16T14:17:26.184Z,24.60
2017-12-16T14:19:54.146Z,23.63
2017-12-16T14:22:26.321Z,25.40
2017-12-16T14:24:53.975Z,24.00
2017-12-16T14:27:21.555Z,24.60
2017-12-16T14:29:49.172Z,22.43
2017-12-16T14:32:17.132Z,22.20
2017-12-16T14:34:45.099Z,22.90
2017-12-16T14:37:12.781Z,23.60
2017-12-16T14:39:40.377Z,22.07
2017-12-16T14:42:08.003Z,21.37
2017-12-16T14:44:35.596Z,23.10
2017-12-16T14:47:03.529Z,23.27
2017-12-16T14:49:31.125Z,23.90
2017-12-16T14:51:58.700Z,22.73
2017-12-16T14:54:26.352Z,22.37
2017-12-16T14:56:53.973Z,22.30
2017-12-16T14:59:22.075Z,21.93
2017-12-16T15:01:49.908Z,23.10
2017-12-16T15:04:17.506Z,22.10
2017-12-16T15:06:45.170Z,23.50
2017-12-16T15:09:12.776Z,23.90
2017-12-16T15:11:40.418Z,23.17
2017-12-16T15:14:08.016Z,21.97
2017-12-16T15:16:35.609Z,22.77
2017-12-16T15:19:03.552Z,22.80
2017-12-16T15:21:31.161Z,21.67
2017-12-16T15:23:58.794Z,21.40
2017-12-16T15:26:26.385Z,22.47
2017-12-16T15:28:53.996Z,21.50
2017-12-16T15:31:21.613Z,21.87
2017-12-16T15:33:49.231Z,21.30
2017-12-16T15:36:16.857Z,21.00
2017-12-16T15:38:44.465Z,21.43
2017-12-16T15:41:12.072Z,21.97
2017-12-16T15:43:39.726Z,21.70
2017-12-16T15:46:07.342Z,22.70
2017-12-16T15:48:35.108Z,21.60
2017-12-16T15:51:02.688Z,22.63
2017-12-16T15:53:30.308Z,25.87
2017-12-16T15:55:57.908Z,22.53
2017-12-16T15:58:25.548Z,22.53
2017-12-16T16:00:53.331Z,23.20
2017-12-16T16:03:20.907Z,22.93
2017-12-16T16:05:48.542Z,21.90
2017-12-16T16:08:16.207Z,23.43
2017-12-16T16:10:43.817Z,20.47
2017-12-16T16:13:11.455Z,21.70
2017-12-16T16:15:39.109Z,21.20
2017-12-16T16:18:06.724Z,21.50
2017-12-16T16:20:34.436Z,21.93
2017-12-16T16:23:02.052Z,21.50
2017-12-16T16:25:30.059Z,21.40
2017-12-16T16:27:57.659Z,20.13
2017-12-16T16:30:25.275Z,21.00
2017-12-16T16:32:52.904Z,20.63
2017-12-16T16:35:20.503Z,19.80
2017-12-16T16:37:48.143Z,21.27
2017-12-16T16:40:16.026Z,21.93
2017-12-16T16:42:43.693Z,21.07
2017-12-16T16:45:11.352Z,20.97
2017-12-16T16:47:39.223Z,21.70
2017-12-16T16:50:06.901Z,20.47
2017-12-16T16:52:34.500Z,21.90
2017-12-16T16:55:02.084Z,21.50
2017-12-16T16:57:29.723Z,21.40
2017-12-16T16:59:57.369Z,22.23
2017-12-16T17:02:25.004Z,22.53
2017-12-16T17:04:52.628Z,21.90
2017-12-16T17:07:20.520Z,24.30
2017-12-16T17:09:48.176Z,22.37
2017-12-16T17:12:15.819Z,21.63
2017-12-16T17:14:43.481Z,20.90
2017-12-16T17:17:11.141Z,22.30
2017-12-16T17:19:38.788Z,20.73
2017-12-16T17:22:06.402Z,20.67
2017-12-16T17:24:34.012Z,20.37
2017-12-16T17:27:01.688Z,21.77
2017-12-16T17:29:29.291Z,23.27
2017-12-16T17:31:56.912Z,20.13
2017-12-16T17:34:24.541Z,19.30
2017-12-16T17:36:52.143Z,21.00
2017-12-16T17:39:19.800Z,19.90
2017-12-16T17:41:47.446Z,19.80
2017-12-16T17:44:15.056Z,20.50
2017-12-16T17:46:42.704Z,21.03
2017-12-16T17:49:10.587Z,23.23
2017-12-16T17:51:38.229Z,21.23
2017-12-16T17:54:05.858Z,21.90
2017-12-16T17:56:33.721Z,20.30
2017-12-16T17:59:01.412Z,19.30
2017-12-16T18:01:30.297Z,19.53
2017-12-16T18:03:58.008Z,19.77
2017-12-16T18:06:25.686Z,19.77
2017-12-16T18:08:53.336Z,19.90
2017-12-16T18:11:20.960Z,18.50
2017-12-16T18:13:48.640Z,19.73
2017-12-16T18:16:16.277Z,19.40
2017-12-16T18:18:43.986Z,20.33
2017-12-16T18:21:11.853Z,20.40
2017-12-16T18:23:39.517Z,24.10
2017-12-16T18:26:07.131Z,24.07
2017-12-16T18:28:34.720Z,18.60
2017-12-16T18:31:02.351Z,17.10
2017-12-16T18:33:29.940Z,20.67
2017-12-16T18:35:57.568Z,18.77
2017-12-16T18:38:25.195Z,21.80
2017-12-16T18:40:52.789Z,18.60
2017-12-16T18:43:20.443Z,19.20
2017-12-16T18:45:48.037Z,19.27
2017-12-16T18:48:15.650Z,19.70
2017-12-16T18:50:43.318Z,20.70
2017-12-16T18:53:10.891Z,19.90
2017-12-16T18:55:38.528Z,19.43
2017-12-16T18:58:06.114Z,18.70
2017-12-16T19:00:34.057Z,20.10
2017-12-16T19:03:01.668Z,18.80
2017-12-16T19:05:29.276Z,19.90
2017-12-16T19:07:57.251Z,18.40
2017-12-16T19:10:24.880Z,18.73
2017-12-16T19:12:52.476Z,18.33
2017-12-16T19:15:20.340Z,19.37
2017-12-16T19:17:47.936Z,18.40
2017-12-16T19:20:15.564Z,18.77
2017-12-16T19:22:43.197Z,19.47
2017-12-16T19:25:10.791Z,19.27
2017-12-16T19:27:38.468Z,19.33
2017-12-16T19:30:06.096Z,18.93
2017-12-16T19:32:33.725Z,18.30
2017-12-16T19:35:01.338Z,18.73
2017-12-16T19:37:28.969Z,18.97
2017-12-16T19:39:56.584Z,18.10
2017-12-16T19:42:24.435Z,18.10
2017-12-16T19:44:52.113Z,17.73
2017-12-16T19:47:19.700Z,17.93
2017-12-16T19:49:47.303Z,19.37
2017-12-16T19:52:14.973Z,17.93
2017-12-16T19:54:42.561Z,18.20
2017-12-16T19:57:10.208Z,17.87
2017-12-16T19:59:38.178Z,18.30
2017-12-16T20:02:05.778Z,18.03
2017-12-16T20:04:33.412Z,17.60
2017-12-16T20:07:01.009Z,17.90
2017-12-16T20:09:28.679Z,17.30
2017-12-16T20:11:56.281Z,17.67
2017-12-16T20:14:23.883Z,17.37
2017-12-16T20:16:51.507Z,17.60
2017-12-16T20:19:19.095Z,16.70
2017-12-16T20:21:48.882Z,17.93
2017-12-16T20:24:16.471Z,18.47
2017-12-16T20:26:44.140Z,16.67
2017-12-16T20:29:11.778Z,16.40
2017-12-16T20:31:39.432Z,17.63
2017-12-16T20:34:07.089Z,18.93
2017-12-16T20:36:34.709Z,17.13
2017-12-16T20:39:02.388Z,18.60
2017-12-16T20:41:30.289Z,18.63
2017-12-16T20:43:57.889Z,17.67
2017-12-16T20:46:25.514Z,17.30
2017-12-16T20:48:53.114Z,17.77
2017-12-16T20:51:20.739Z,17.70
2017-12-16T20:53:48.704Z,18.57
2017-12-16T20:56:16.303Z,17.07
2017-12-16T20:58:44.018Z,18.20
2017-12-16T21:01:11.612Z,17.40
2017-12-16T21:03:39.574Z,18.87
2017-12-16T21:06:07.247Z,17.97
2017-12-16T21:08:34.844Z,19.00
2017-12-16T21:11:02.585Z,18.20
2017-12-16T21:13:30.168Z,17.50
2017-12-16T21:15:57.814Z,18.97
2017-12-16T21:18:25.432Z,18.13
2017-12-16T21:20:53.024Z,17.80
2017-12-16T21:23:20.974Z,17.57
2017-12-16T21:25:48.584Z,17.97
2017-12-16T21:28:16.166Z,17.87
2017-12-16T21:30:43.863Z,17.60
2017-12-16T21:33:11.456Z,17.93
2017-12-16T21:35:39.099Z,18.20
2017-12-16T21:38:06.698Z,18.37
2017-12-16T21:40:34.346Z,18.57
2017-12-16T21:43:01.978Z,18.10
2017-12-16T21:45:29.600Z,19.00
2017-12-16T21:47:57.238Z,18.27
2017-12-16T21:50:24.886Z,16.77
2017-12-16T21:52:52.485Z,17.90
2017-12-16T21:55:20.101Z,18.60
2017-12-16T21:57:48.056Z,19.10
2017-12-16T22:00:16.021Z,18.87
2017-12-16T22:02:43.635Z,19.30
2017-12-16T22:05:12.167Z,16.90
2017-12-16T22:07:39.784Z,17.47
2017-12-16T22:10:07.383Z,16.87
2017-12-16T22:12:35.258Z,15.90
2017-12-16T22:15:02.856Z,17.70
2017-12-16T22:17:30.448Z,16.90
2017-12-16T22:19:58.134Z,16.73
2017-12-16T22:22:26.009Z,17.50
2017-12-16T22:24:53.640Z,17.10
2017-12-16T22:27:21.238Z,17.50
2017-12-16T22:29:48.845Z,17.00
2017-12-16T22:32:16.472Z,17.10
2017-12-16T22:34:44.054Z,18.10
2017-12-16T22:37:11.738Z,17.30
2017-12-16T22:39:39.393Z,17.20
2017-12-16T22:42:06.994Z,16.90
2017-12-16T22:44:34.746Z,16.07
2017-12-16T22:47:02.412Z,15.93
2017-12-16T22:49:30.041Z,16.57
2017-12-16T22:51:57.964Z,17.70
2017-12-16T22:54:25.555Z,17.83
2017-12-16T22:56:53.181Z,15.80
2017-12-16T22:59:20.824Z,17.27
2017-12-16T23:01:48.523Z,16.40
2017-12-16T23:04:16.150Z,16.53
2017-12-16T23:06:43.760Z,16.40
2017-12-16T23:09:11.423Z,15.87
2017-12-16T23:11:39.030Z,15.50
2017-12-16T23:14:06.663Z,15.63
2017-12-16T23:16:34.717Z,15.53
2017-12-16T23:19:02.324Z,16.37
2017-12-16T23:21:29.939Z,15.10
2017-12-16T23:23:57.799Z,16.00
2017-12-16T23:26:25.432Z,15.37
2017-12-16T23:28:53.334Z,16.70
2017-12-16T23:31:20.915Z,16.27
2017-12-16T23:33:48.788Z,15.60
2017-12-16T23:36:16.422Z,14.80
2017-12-16T23:38:44.105Z,15.10
2017-12-16T23:41:11.703Z,15.20
2017-12-16T23:43:39.306Z,14.13
2017-12-16T23:46:06.991Z,13.90
2017-12-16T23:48:34.580Z,13.40
2017-12-16T23:51:02.220Z,13.73
2017-12-16T23:53:29.799Z,13.77
2017-12-16T23:55:57.392Z,13.67
2017-12-16T23:58:25.294Z,14.20
